Time;durP1;ratioP1;P1;durP2;ratioP2;P2;SDS_P1;SDS_P2;PMS_P1;PMS_P2;Temp;Humidity;BMP_temperature;BMP_pressure;BME280_temperature;BME280_humidity;BME280_pressure;Samples;Min_cycle;Max_cycle;Signal;HPM_P1;HPM_P2
2022/11/10 00:00:04;;;;;;;14.50;3.75;;;9.70;99.90;;;;;;6147070;23;20013;-88
2022/11/10 00:02:30;;;;;;;13.68;4.28;;;9.70;99.90;;;;;;6146421;22;20032;-88
2022/11/10 00:04:56;;;;;;;14.52;3.63;;;9.70;99.90;;;;;;6146818;23;20089;-89
2022/11/10 00:07:26;;;;;;;14.05;3.47;;;9.70;99.90;;;;;;6171879;23;20497;-90
2022/11/10 00:09:51;;;;;;;11.18;3.47;;;9.70;99.90;;;;;;6146901;22;20013;-87
2022/11/10 00:12:18;;;;;;;15.02;3.47;;;9.70;99.90;;;;;;6171349;23;20012;-89
2022/11/10 00:17:28;;;;;;;14.27;3.80;;;9.60;99.90;;;;;;6170734;23;20397;-89
2022/11/10 00:19:54;;;;;;;9.90;4.30;;;9.60;99.90;;;;;;6171860;23;20021;-88
2022/11/10 00:22:19;;;;;;;15.98;4.28;;;9.60;99.90;;;;;;6146702;23;20017;-88
2022/11/10 00:24:45;;;;;;;14.75;4.30;;;9.50;99.90;;;;;;6147008;23;20031;-87
2022/11/10 00:27:13;;;;;;;15.30;4.07;;;9.60;99.90;;;;;;6172433;22;20031;-87
2022/11/10 00:29:39;;;;;;;16.23;4.60;;;9.70;99.90;;;;;;6146416;23;20042;-89
2022/11/10 00:32:05;;;;;;;18.77;4.40;;;9.70;99.90;;;;;;6146070;22;20812;-90
2022/11/10 00:34:31;;;;;;;18.38;5.38;;;9.50;99.90;;;;;;6146727;22;20013;-88
2022/11/10 00:36:57;;;;;;;14.70;4.30;;;9.60;99.90;;;;;;6146183;23;20024;-88
2022/11/10 00:39:22;;;;;;;17.88;4.63;;;9.70;99.90;;;;;;6147552;23;20055;-89
2022/11/10 00:41:48;;;;;;;19.48;4.40;;;9.80;99.90;;;;;;6145861;23;20038;-89
2022/11/10 00:44:14;;;;;;;15.88;4.03;;;9.70;99.90;;;;;;6147553;23;20105;-88
2022/11/10 00:46:39;;;;;;;15.23;4.78;;;9.70;99.90;;;;;;6146089;23;20520;-90
2022/11/10 00:49:05;;;;;;;11.75;4.85;;;9.70;99.90;;;;;;6146849;23;20492;-88
2022/11/10 00:51:33;;;;;;;19.90;4.60;;;9.80;99.90;;;;;;6147392;23;20017;-88
2022/11/10 00:53:59;;;;;;;16.63;5.10;;;9.70;99.90;;;;;;6157215;23;20087;-89
2022/11/10 00:56:25;;;;;;;16.77;4.75;;;9.70;99.90;;;;;;6171860;23;20116;-89
2022/11/10 00:58:51;;;;;;;19.98;5.10;;;9.70;99.90;;;;;;6173146;23;20113;-88
2022/11/10 01:01:18;;;;;;;15.88;5.20;;;9.60;99.90;;;;;;6171715;23;20051;-89
2022/11/10 01:03:44;;;;;;;19.50;5.30;;;9.80;99.90;;;;;;6171792;23;20016;-89
2022/11/10 01:06:12;;;;;;;13.50;4.88;;;9.70;99.90;;;;;;6171770;23;20024;-88
2022/11/10 01:08:39;;;;;;;16.63;4.88;;;9.70;99.90;;;;;;6172445;23;20073;-88
2022/11/10 01:11:11;;;;;;;19.80;5.85;;;9.60;99.90;;;;;;6172546;23;20016;-89
2022/11/10 01:13:37;;;;;;;21.25;5.20;;;9.80;99.90;;;;;;6171950;23;20381;-89
2022/11/10 01:16:09;;;;;;;19.70;6.22;;;9.70;99.90;;;;;;6172672;23;20048;-88
2022/11/10 01:18:35;;;;;;;20.27;5.40;;;9.80;99.90;;;;;;6172035;23;20512;-89
2022/11/10 01:21:02;;;;;;;21.02;6.20;;;9.70;99.90;;;;;;6171477;23;20441;-88
2022/11/10 01:23:28;;;;;;;13.77;5.47;;;9.70;99.90;;;;;;6172569;23;20017;-88
2022/11/10 01:26:06;;;;;;;17.33;5.95;;;9.60;99.90;;;;;;6171476;23;20077;-89
2022/11/10 01:28:34;;;;;;;20.08;6.25;;;9.60;99.90;;;;;;6195809;23;20016;-89
2022/11/10 01:31:05;;;;;;;19.85;6.57;;;9.60;99.90;;;;;;6143434;23;20040;-89
2022/11/10 01:33:32;;;;;;;18.42;6.68;;;9.60;99.90;;;;;;6141385;23;20227;-89
2022/11/10 01:36:00;;;;;;;17.80;6.68;;;9.60;99.90;;;;;;6142590;23;20013;-90
2022/11/10 01:38:32;;;;;;;20.58;6.70;;;9.60;99.90;;;;;;6141346;23;20024;-89
2022/11/10 01:40:58;;;;;;;25.10;7.40;;;9.70;99.90;;;;;;6141289;23;20024;-89
2022/11/10 01:43:25;;;;;;;21.48;6.80;;;9.60;99.90;;;;;;6143507;23;20017;-89
2022/11/10 01:46:02;;;;;;;20.08;7.03;;;9.60;99.90;;;;;;6142283;23;20016;-89
2022/11/10 01:48:45;;;;;;;19.25;7.40;;;9.60;99.90;;;;;;6272813;22;20017;-88
2022/11/10 01:51:21;;;;;;;22.70;6.97;;;9.60;99.90;;;;;;6143581;23;20094;-88
2022/11/10 01:54:03;;;;;;;21.20;7.07;;;9.60;99.90;;;;;;6142146;23;20160;-88
2022/11/10 01:56:33;;;;;;;25.13;7.68;;;9.60;99.90;;;;;;6143872;23;20501;-90
2022/11/10 01:59:04;;;;;;;22.30;7.60;;;9.60;99.90;;;;;;6142610;23;20029;-88
2022/11/10 02:01:30;;;;;;;24.20;8.40;;;9.50;99.90;;;;;;6142035;23;20024;-88
2022/11/10 02:03:58;;;;;;;22.13;7.40;;;9.50;99.90;;;;;;6140939;23;20021;-89
2022/11/10 02:06:27;;;;;;;22.85;7.85;;;9.50;99.90;;;;;;6141338;23;20149;-89
2022/11/10 02:08:54;;;;;;;20.52;8.40;;;9.40;99.90;;;;;;6142733;23;20021;-91
2022/11/10 02:11:20;;;;;;;18.27;8.48;;;9.60;99.90;;;;;;6142466;23;20104;-88
2022/11/10 02:13:47;;;;;;;36.47;8.63;;;9.60;99.90;;;;;;6167467;22;20078;-89
2022/11/10 02:16:12;;;;;;;19.77;8.20;;;9.50;99.90;;;;;;6142611;23;20064;-89
2022/11/10 02:18:38;;;;;;;20.67;7.65;;;9.60;99.90;;;;;;6143813;23;20070;-88
2022/11/10 02:21:05;;;;;;;25.55;8.15;;;9.60;99.90;;;;;;6166292;23;20380;-89
2022/11/10 02:23:32;;;;;;;26.45;9.05;;;9.50;99.90;;;;;;6167539;23;20021;-89
2022/11/10 02:25:59;;;;;;;21.15;8.20;;;9.50;99.90;;;;;;6142492;23;20237;-90
2022/11/10 02:28:26;;;;;;;22.35;8.10;;;9.50;99.90;;;;;;6143150;23;20017;-89
2022/11/10 02:30:52;;;;;;;27.10;8.15;;;9.50;99.90;;;;;;6143001;23;20044;-90
2022/11/10 02:33:18;;;;;;;25.88;8.45;;;9.50;99.90;;;;;;6141150;23;20017;-89
2022/11/10 02:35:45;;;;;;;17.50;8.18;;;9.50;99.90;;;;;;6167274;23;20075;-87
2022/11/10 02:38:14;;;;;;;27.00;8.38;;;9.60;99.90;;;;;;6141897;23;20122;-89
2022/11/10 02:40:40;;;;;;;25.85;9.13;;;9.50;99.90;;;;;;6143045;23;20017;-89
2022/11/10 02:43:10;;;;;;;25.40;7.93;;;9.60;99.90;;;;;;6143723;23;20031;-92
2022/11/10 02:45:45;;;;;;;22.35;8.40;;;9.50;99.90;;;;;;6143295;23;20039;-91
2022/11/10 02:48:11;;;;;;;;;;;9.60;99.90;;;;;;6143915;23;20024;-92
2022/11/10 02:50:36;;;;;;;19.95;7.20;;;9.60;99.90;;;;;;6143035;23;19922;-92
2022/11/10 02:53:02;;;;;;;22.33;7.85;;;9.50;99.90;;;;;;6142852;23;20021;-93
2022/11/10 02:55:28;;;;;;;23.77;8.30;;;9.50;99.90;;;;;;6118704;23;20029;-92
2022/11/10 02:57:54;;;;;;;23.13;7.78;;;9.50;99.90;;;;;;6119654;23;20470;-91
2022/11/10 03:00:20;;;;;;;16.67;7.88;;;9.50;99.90;;;;;;6119660;23;20058;-91
2022/11/10 03:02:45;;;;;;;23.70;7.60;;;9.60;99.90;;;;;;6118021;23;20401;-93
2022/11/10 03:05:11;;;;;;;20.98;7.80;;;9.60;99.90;;;;;;6119605;23;20021;-92
2022/11/10 03:07:37;;;;;;;23.50;8.00;;;9.70;99.90;;;;;;6118684;23;20028;-94
2022/11/10 03:10:04;;;;;;;21.65;7.95;;;9.60;99.90;;;;;;6120068;23;20015;-92
2022/11/10 03:12:29;;;;;;;28.23;7.57;;;9.50;99.90;;;;;;6118948;23;20345;-94
2022/11/10 03:14:55;;;;;;;21.83;7.22;;;9.50;99.90;;;;;;6118987;23;20081;-92
2022/11/10 03:17:21;;;;;;;23.85;7.88;;;9.60;99.90;;;;;;6116956;23;20029;-94
2022/11/10 03:19:50;;;;;;;19.48;7.53;;;9.60;99.90;;;;;;6119211;23;20016;-92
2022/11/10 03:22:15;;;;;;;25.27;7.63;;;9.60;99.90;;;;;;6118741;23;20017;-92
2022/11/10 03:24:41;;;;;;;21.00;7.38;;;9.50;99.90;;;;;;6118679;23;20032;-92
2022/11/10 03:27:06;;;;;;;25.83;7.53;;;9.50;99.90;;;;;;6119620;23;20009;-92
2022/11/10 03:29:32;;;;;;;22.77;7.55;;;9.70;99.90;;;;;;6118806;23;20021;-92
2022/11/10 03:31:58;;;;;;;13.90;6.88;;;9.60;99.90;;;;;;6118713;23;20213;-92
2022/11/10 03:34:23;;;;;;;22.13;8.20;;;9.50;99.90;;;;;;6118135;23;20009;-91
2022/11/10 03:36:49;;;;;;;22.65;7.28;;;9.50;99.90;;;;;;6119850;23;20013;-92
2022/11/10 03:39:18;;;;;;;21.20;6.20;;;9.60;99.90;;;;;;6119480;23;20092;-92
2022/11/10 03:41:43;;;;;;;23.80;7.40;;;9.50;99.90;;;;;;6118824;23;20036;-91
2022/11/10 03:44:09;;;;;;;20.90;7.22;;;9.50;99.90;;;;;;6144435;23;20466;-93
2022/11/10 03:46:34;;;;;;;18.23;7.30;;;9.40;99.90;;;;;;6117916;23;20028;-91
2022/11/10 03:49:00;;;;;;;22.15;6.97;;;9.50;99.90;;;;;;6143455;23;20013;-94
2022/11/10 03:51:26;;;;;;;26.98;7.57;;;9.50;99.90;;;;;;6143246;23;20021;-92
2022/11/10 03:53:51;;;;;;;23.70;7.78;;;9.40;99.90;;;;;;6125976;23;20020;-92
2022/11/10 03:56:17;;;;;;;21.65;8.18;;;9.30;99.90;;;;;;6143437;23;20017;-92
2022/11/10 03:58:45;;;;;;;28.13;8.15;;;9.50;99.90;;;;;;6144055;23;20246;-92
2022/11/10 04:01:11;;;;;;;31.50;8.00;;;9.40;99.90;;;;;;6143251;23;20024;-93
2022/11/10 04:03:36;;;;;;;33.00;9.93;;;9.40;99.90;;;;;;6143380;23;20013;-93
2022/11/10 04:08:58;;;;;;;26.77;8.20;;;9.50;99.90;;;;;;6167089;23;20025;-93
2022/11/10 04:16:54;;;;;;;30.90;9.00;;;9.50;99.90;;;;;;6166905;23;20500;-92
2022/11/10 04:19:20;;;;;;;30.60;9.60;;;9.50;99.90;;;;;;6143815;23;20020;-92
2022/11/10 04:21:46;;;;;;;23.92;9.02;;;9.50;99.90;;;;;;6142178;23;20036;-92
2022/11/10 04:24:12;;;;;;;23.90;8.82;;;9.40;99.90;;;;;;6142717;23;20025;-91
2022/11/10 04:26:37;;;;;;;28.40;9.75;;;9.50;99.90;;;;;;6142611;23;20019;-92
2022/11/10 04:29:08;;;;;;;26.73;9.23;;;9.50;99.90;;;;;;6143201;23;20027;-91
2022/11/10 04:31:38;;;;;;;29.58;10.05;;;9.50;99.90;;;;;;6166935;23;20358;-92
2022/11/10 04:34:06;;;;;;;31.98;9.68;;;9.60;99.90;;;;;;6141781;23;20017;-89
2022/11/10 04:36:34;;;;;;;26.77;9.90;;;9.60;99.90;;;;;;6142765;23;20082;-88
2022/11/10 04:39:00;;;;;;;30.70;9.85;;;9.70;99.90;;;;;;6141186;23;20013;-87
2022/11/10 04:41:27;;;;;;;29.08;10.10;;;9.70;99.90;;;;;;6142505;23;20436;-89
2022/11/10 04:43:53;;;;;;;28.95;9.35;;;9.70;99.90;;;;;;6142642;23;20125;-89
2022/11/10 04:46:30;;;;;;;27.50;9.43;;;9.80;99.90;;;;;;6141443;23;20135;-89
2022/11/10 04:48:56;;;;;;;26.77;9.55;;;9.80;99.90;;;;;;6142148;23;20342;-89
2022/11/10 04:51:25;;;;;;;34.17;10.73;;;9.80;99.90;;;;;;6167357;23;20033;-88
2022/11/10 04:53:51;;;;;;;30.05;9.73;;;9.80;99.90;;;;;;6141557;23;20028;-89
2022/11/10 04:56:19;;;;;;;28.10;9.77;;;9.80;99.90;;;;;;6141552;23;20013;-89
2022/11/10 04:58:45;;;;;;;35.83;10.90;;;9.90;99.90;;;;;;6142709;23;20473;-89
2022/11/10 05:01:17;;;;;;;34.58;10.32;;;9.90;99.90;;;;;;6142712;23;20096;-91
2022/11/10 05:03:47;;;;;;;26.33;9.55;;;9.80;99.90;;;;;;6142247;23;20028;-91
2022/11/10 05:06:13;;;;;;;30.25;10.55;;;9.90;99.90;;;;;;6141752;23;20017;-89
2022/11/10 05:08:40;;;;;;;27.63;10.07;;;10.00;99.90;;;;;;6166390;23;20027;-87
2022/11/10 05:11:06;;;;;;;28.02;9.48;;;10.00;99.90;;;;;;6141137;23;20020;-90
2022/11/10 05:13:32;;;;;;;29.45;10.15;;;10.00;99.90;;;;;;6166633;23;20028;-87
2022/11/10 05:16:01;;;;;;;31.45;9.25;;;10.00;99.90;;;;;;6141749;23;20017;-89
2022/11/10 05:18:30;;;;;;;32.47;9.98;;;9.90;99.90;;;;;;6140877;23;20346;-88
2022/11/10 05:20:56;;;;;;;35.33;9.88;;;9.90;99.90;;;;;;6141136;23;20024;-88
2022/11/10 05:23:37;;;;;;;34.08;9.77;;;9.90;99.90;;;;;;6166216;23;20021;-89
2022/11/10 05:26:14;;;;;;;37.42;9.40;;;9.90;99.90;;;;;;6142750;23;20464;-89
2022/11/10 05:28:41;;;;;;;29.67;8.73;;;9.90;99.90;;;;;;6141416;23;20488;-91
2022/11/10 05:31:07;;;;;;;31.83;8.98;;;10.00;99.90;;;;;;6142932;23;20013;-88
2022/11/10 05:33:34;;;;;;;27.40;8.85;;;10.00;99.90;;;;;;6141313;23;20544;-89
2022/11/10 05:36:08;;;;;;;26.95;8.75;;;9.90;99.90;;;;;;6141643;23;20020;-89
2022/11/10 05:38:34;;;;;;;32.70;8.52;;;9.90;99.90;;;;;;6142484;23;20096;-88
2022/11/10 05:41:00;;;;;;;35.92;8.10;;;10.00;99.90;;;;;;6140968;23;20056;-89
2022/11/10 05:43:25;;;;;;;28.95;7.82;;;9.90;99.90;;;;;;6142219;23;20056;-89
2022/11/10 05:45:51;;;;;;;32.83;8.35;;;9.90;99.90;;;;;;6141544;23;20112;-88
2022/11/10 05:48:17;;;;;;;26.63;7.88;;;9.90;99.90;;;;;;6165535;22;20052;-89
2022/11/10 05:50:43;;;;;;;25.00;8.20;;;10.00;99.90;;;;;;6142124;23;20028;-89
2022/11/10 05:53:09;;;;;;;25.33;7.95;;;10.10;99.90;;;;;;6140893;23;20024;-88
2022/11/10 05:55:35;;;;;;;31.13;8.60;;;10.10;99.90;;;;;;6117874;23;20017;-89
2022/11/10 05:58:01;;;;;;;30.13;7.55;;;10.00;99.90;;;;;;6116751;23;20354;-89
2022/11/10 06:00:29;;;;;;;29.65;7.03;;;10.20;99.90;;;;;;6117809;23;20049;-89
2022/11/10 06:03:12;;;;;;;24.45;7.57;;;10.10;99.90;;;;;;6116349;23;20093;-90
2022/11/10 06:05:38;;;;;;;29.33;7.47;;;10.10;99.90;;;;;;6142090;23;20016;-88
2022/11/10 06:08:04;;;;;;;32.05;7.22;;;10.10;99.90;;;;;;6115974;23;20013;-90
2022/11/10 06:10:31;;;;;;;24.55;6.50;;;10.10;99.90;;;;;;6142628;23;20108;-90
2022/11/10 06:12:57;;;;;;;24.42;6.32;;;10.20;99.90;;;;;;6115840;23;20021;-89
2022/11/10 06:15:23;;;;;;;27.33;7.10;;;10.20;99.90;;;;;;6116423;23;20474;-90
2022/11/10 06:17:49;;;;;;;24.85;7.13;;;10.10;99.90;;;;;;6116674;23;20013;-89
2022/11/10 06:20:18;;;;;;;25.05;7.00;;;10.10;99.90;;;;;;6116595;23;20016;-90
2022/11/10 06:23:03;;;;;;;25.95;7.32;;;10.10;99.90;;;;;;6117620;23;20258;-89
2022/11/10 06:25:31;;;;;;;21.05;6.88;;;10.10;99.90;;;;;;6117448;23;20060;-88
2022/11/10 06:27:57;;;;;;;19.83;6.90;;;10.10;99.90;;;;;;6142860;23;20136;-89
2022/11/10 06:30:24;;;;;;;25.55;6.68;;;10.10;99.90;;;;;;6118517;23;20547;-89
2022/11/10 06:32:52;;;;;;;25.25;6.85;;;10.20;99.90;;;;;;6116501;23;20024;-88
2022/11/10 06:35:19;;;;;;;23.50;7.53;;;10.00;99.90;;;;;;6141687;23;20092;-89
2022/11/10 06:37:45;;;;;;;28.85;7.50;;;10.10;99.90;;;;;;6142385;23;20052;-89
2022/11/10 06:40:12;;;;;;;26.40;7.10;;;10.10;99.90;;;;;;6117599;23;20013;-90
2022/11/10 06:42:38;;;;;;;21.27;7.03;;;10.10;99.90;;;;;;6118473;23;20044;-89
2022/11/10 06:45:04;;;;;;;20.67;7.43;;;10.10;99.90;;;;;;6119918;23;20024;-88
2022/11/10 06:47:33;;;;;;;24.27;8.43;;;10.10;99.90;;;;;;6116956;23;20500;-89
2022/11/10 06:49:59;;;;;;;26.58;7.63;;;10.10;99.90;;;;;;6117771;23;20020;-89
2022/11/10 06:52:25;;;;;;;22.27;8.30;;;10.20;99.90;;;;;;6118124;23;20295;-88
2022/11/10 06:54:50;;;;;;;23.77;8.07;;;10.10;99.90;;;;;;6138370;23;20190;-88
2022/11/10 06:57:16;;;;;;;23.27;8.07;;;10.10;99.90;;;;;;6166957;23;20017;-89
2022/11/10 06:59:42;;;;;;;30.92;7.88;;;10.20;99.90;;;;;;6168200;23;20096;-89
2022/11/10 07:02:14;;;;;;;24.92;8.30;;;10.30;99.90;;;;;;6141369;23;20015;-90
2022/11/10 07:04:41;;;;;;;27.10;8.75;;;10.20;99.90;;;;;;6141716;23;20017;-88
2022/11/10 07:07:07;;;;;;;20.92;7.50;;;10.30;99.90;;;;;;6141787;23;20396;-88
2022/11/10 07:09:33;;;;;;;27.42;7.70;;;10.30;99.90;;;;;;6141989;23;20013;-88
2022/11/10 07:11:58;;;;;;;23.40;7.35;;;10.40;99.90;;;;;;6142567;23;20509;-89
2022/11/10 07:14:24;;;;;;;20.20;7.53;;;10.30;99.90;;;;;;6142413;23;20013;-89
2022/11/10 07:16:49;;;;;;;23.67;7.55;;;10.40;99.90;;;;;;6140221;23;20013;-89
2022/11/10 07:19:18;;;;;;;26.45;7.93;;;10.50;99.90;;;;;;6167248;23;20005;-89
2022/11/10 07:21:43;;;;;;;25.08;7.75;;;10.50;99.90;;;;;;6166474;23;20043;-89
2022/11/10 07:24:09;;;;;;;27.38;7.97;;;10.50;99.90;;;;;;6167533;23;20025;-88
2022/11/10 07:26:35;;;;;;;19.50;7.60;;;10.50;99.90;;;;;;6141892;23;20017;-88
2022/11/10 07:29:00;;;;;;;17.88;6.80;;;10.50;99.90;;;;;;6140657;23;20017;-90
2022/11/10 07:31:26;;;;;;;29.27;8.07;;;10.40;99.90;;;;;;6142232;23;20027;-90
2022/11/10 07:33:52;;;;;;;25.52;6.72;;;10.50;99.90;;;;;;6141002;23;20021;-89
2022/11/10 07:36:17;;;;;;;21.50;7.25;;;10.50;99.90;;;;;;6142285;23;20438;-89
2022/11/10 07:38:43;;;;;;;26.30;7.10;;;10.40;99.90;;;;;;6141292;23;20116;-89
2022/11/10 07:41:09;;;;;;;33.60;8.82;;;10.40;99.90;;;;;;6142397;23;20020;-87
2022/11/10 07:43:35;;;;;;;24.10;7.03;;;10.30;99.90;;;;;;6142698;23;20537;-88
2022/11/10 07:46:00;;;;;;;22.95;6.90;;;10.30;99.90;;;;;;6141460;23;20096;-89
2022/11/10 07:48:26;;;;;;;22.20;6.57;;;10.40;99.90;;;;;;6166403;23;20106;-88
2022/11/10 07:50:52;;;;;;;25.63;7.18;;;10.30;99.90;;;;;;6141262;23;20086;-89
2022/11/10 07:53:19;;;;;;;23.85;6.75;;;10.30;99.90;;;;;;6141593;23;20025;-89
2022/11/10 07:55:45;;;;;;;25.70;7.18;;;10.40;99.90;;;;;;6142919;23;20017;-89
2022/11/10 07:58:13;;;;;;;26.00;7.05;;;10.50;99.90;;;;;;6141788;23;20096;-89
2022/11/10 08:00:40;;;;;;;21.80;6.68;;;10.50;99.90;;;;;;6142046;23;20017;-88
2022/11/10 08:03:26;;;;;;;21.35;6.93;;;10.50;99.90;;;;;;6141032;23;20251;-89
2022/11/10 08:05:52;;;;;;;20.83;6.57;;;10.40;99.90;;;;;;6141745;23;20078;-87
2022/11/10 08:08:17;;;;;;;22.50;7.55;;;10.60;99.90;;;;;;6165955;23;20021;-89
2022/11/10 08:10:46;;;;;;;25.05;6.85;;;10.50;99.90;;;;;;6141325;23;20225;-89
2022/11/10 08:13:12;;;;;;;22.10;7.30;;;10.50;99.90;;;;;;6141584;23;20025;-89
2022/11/10 08:15:39;;;;;;;20.65;6.38;;;10.60;99.90;;;;;;6141541;23;20017;-87
2022/11/10 08:18:17;;;;;;;19.33;6.95;;;10.60;99.90;;;;;;6140061;23;20013;-88
2022/11/10 08:20:43;;;;;;;21.80;6.43;;;10.70;99.90;;;;;;6142064;23;20013;-89
2022/11/10 08:23:10;;;;;;;19.77;7.65;;;10.70;99.90;;;;;;6166471;23;20400;-89
2022/11/10 08:25:36;;;;;;;23.27;6.88;;;10.70;99.90;;;;;;6142825;23;20045;-89
2022/11/10 08:28:05;;;;;;;21.88;7.30;;;10.70;99.90;;;;;;6141186;23;20039;-89
2022/11/10 08:30:32;;;;;;;22.80;7.13;;;10.80;99.90;;;;;;6142501;23;20013;-88
2022/11/10 08:33:00;;;;;;;23.67;8.10;;;10.90;99.90;;;;;;6139742;23;20395;-89
2022/11/10 08:35:28;;;;;;;28.60;7.50;;;11.00;99.90;;;;;;6141121;23;20063;-88
2022/11/10 08:37:54;;;;;;;21.13;7.15;;;11.10;99.90;;;;;;6140071;23;20085;-88
2022/11/10 08:40:20;;;;;;;22.25;6.72;;;11.10;99.90;;;;;;6165970;23;20093;-88
2022/11/10 08:42:47;;;;;;;19.27;6.95;;;11.30;99.90;;;;;;6165955;23;20422;-89
2022/11/10 08:45:13;;;;;;;25.70;7.60;;;11.40;99.90;;;;;;6141840;23;20017;-89
2022/11/10 08:47:40;;;;;;;18.17;6.28;;;11.50;99.90;;;;;;6139845;23;20013;-87
2022/11/10 08:50:06;;;;;;;16.83;6.60;;;11.40;99.90;;;;;;6140864;23;20451;-88
2022/11/10 08:52:33;;;;;;;20.75;6.80;;;11.40;99.90;;;;;;6140106;23;20318;-88
2022/11/10 08:54:58;;;;;;;20.70;7.00;;;11.20;99.90;;;;;;6141254;23;20017;-88
2022/11/10 08:57:24;;;;;;;20.13;6.70;;;11.30;99.90;;;;;;6140169;23;20093;-90
2022/11/10 08:59:50;;;;;;;23.70;6.53;;;11.20;99.90;;;;;;6141254;23;20044;-88
2022/11/10 09:02:15;;;;;;;16.63;7.75;;;11.30;99.90;;;;;;6138794;23;20017;-88
2022/11/10 09:04:41;;;;;;;20.63;6.75;;;11.40;99.90;;;;;;6140118;23;20021;-88
2022/11/10 09:07:07;;;;;;;23.52;6.25;;;11.40;99.90;;;;;;6140526;23;20017;-88
2022/11/10 09:09:32;;;;;;;20.20;6.40;;;11.60;99.90;;;;;;6140236;23;20017;-90
2022/11/10 09:11:58;;;;;;;21.27;5.55;;;11.60;99.90;;;;;;6141192;23;20021;-88
2022/11/10 09:14:24;;;;;;;25.73;7.30;;;11.70;99.90;;;;;;6139509;23;20071;-88
2022/11/10 09:16:49;;;;;;;21.73;6.57;;;11.80;99.90;;;;;;6138745;23;20017;-88
2022/11/10 09:19:18;;;;;;;22.52;6.65;;;11.70;99.90;;;;;;6140758;23;20013;-88
2022/11/10 09:21:43;;;;;;;21.77;6.55;;;11.90;99.90;;;;;;6141123;23;20028;-88
2022/11/10 09:24:09;;;;;;;17.58;5.80;;;11.80;99.90;;;;;;6141243;23;20013;-89
2022/11/10 09:26:35;;;;;;;22.05;6.20;;;11.90;99.90;;;;;;6141236;23;20519;-88
2022/11/10 09:29:00;;;;;;;19.85;6.45;;;12.10;99.90;;;;;;6142642;23;20365;-88
2022/11/10 09:31:26;;;;;;;22.27;7.05;;;12.20;99.90;;;;;;6164509;23;20021;-87
2022/11/10 09:33:51;;;;;;;19.25;6.38;;;12.20;99.90;;;;;;6140263;23;20021;-87
2022/11/10 09:36:17;;;;;;;19.58;6.80;;;12.20;99.90;;;;;;6140625;23;20013;-88
2022/11/10 09:38:45;;;;;;;21.23;6.80;;;12.30;99.90;;;;;;6141029;23;20325;-89
2022/11/10 09:41:13;;;;;;;18.73;7.00;;;12.30;99.90;;;;;;6141283;23;20322;-87
2022/11/10 09:43:48;;;;;;;19.33;6.45;;;12.30;99.90;;;;;;6141101;23;20013;-88
2022/11/10 09:46:23;;;;;;;22.38;7.13;;;12.40;99.90;;;;;;6139865;23;20458;-87
2022/11/10 09:49:15;;;;;;;15.98;6.20;;;12.60;99.90;;;;;;6140031;23;20185;-88
2022/11/10 09:51:42;;;;;;;22.15;6.63;;;12.70;99.90;;;;;;6164714;23;20119;-88
2022/11/10 09:54:23;;;;;;;14.07;5.75;;;12.90;99.90;;;;;;6139694;23;20418;-87
2022/11/10 09:56:50;;;;;;;23.45;5.82;;;12.90;99.90;;;;;;6139970;23;20019;-88
2022/11/10 09:59:23;;;;;;;21.75;5.45;;;12.80;99.90;;;;;;6141528;23;20032;-87
2022/11/10 10:02:16;;;;;;;19.08;5.50;;;12.80;99.90;;;;;;6138388;23;20017;-88
2022/11/10 10:04:54;;;;;;;20.77;5.75;;;12.80;99.90;;;;;;6165538;23;20021;-88
2022/11/10 10:07:40;;;;;;;16.95;5.22;;;13.00;99.90;;;;;;6141351;23;20462;-87
2022/11/10 10:10:22;;;;;;;17.85;5.25;;;13.00;99.90;;;;;;6165828;23;20393;-89
2022/11/10 10:13:27;;;;;;;24.20;5.57;;;13.00;99.90;;;;;;6166462;23;20017;-88
2022/11/10 10:16:11;;;;;;;17.88;4.93;;;13.00;99.90;;;;;;6180414;23;20153;-87
2022/11/10 10:19:10;;;;;;;18.83;5.53;;;13.10;99.90;;;;;;6139674;23;20095;-89
2022/11/10 10:22:01;;;;;;;20.02;5.15;;;13.20;99.90;;;;;;6166967;22;20070;-87
2022/11/10 10:24:29;;;;;;;18.75;5.30;;;13.20;99.90;;;;;;6140941;23;20114;-88
2022/11/10 10:26:57;;;;;;;18.30;5.47;;;13.30;99.90;;;;;;6140657;23;20600;-88
2022/11/10 10:29:39;;;;;;;21.17;4.60;;;13.40;99.90;;;;;;6165311;23;20046;-86
2022/11/10 10:32:12;;;;;;;16.20;5.05;;;13.40;99.90;;;;;;6138970;23;20047;-87
2022/11/10 10:34:38;;;;;;;25.40;5.85;;;13.30;99.90;;;;;;6165137;23;20013;-89
2022/11/10 10:37:04;;;;;;;16.58;5.47;;;13.30;99.90;;;;;;6142027;23;20013;-88
2022/11/10 10:39:45;;;;;;;18.15;5.88;;;13.20;99.90;;;;;;6165491;23;20009;-87
2022/11/10 10:42:29;;;;;;;18.73;6.35;;;13.00;99.90;;;;;;6140708;23;20150;-87
2022/11/10 10:45:19;;;;;;;22.75;6.28;;;13.10;99.90;;;;;;6141609;23;20088;-87
2022/11/10 10:47:46;;;;;;;29.85;7.25;;;13.10;99.90;;;;;;6139420;23;20433;-87
2022/11/10 10:50:34;;;;;;;20.98;6.93;;;13.10;99.90;;;;;;6139090;23;20055;-87
2022/11/10 10:53:14;;;;;;;22.77;7.72;;;13.20;99.90;;;;;;6138482;23;20017;-87
2022/11/10 10:55:53;;;;;;;26.80;8.20;;;13.20;99.90;;;;;;6116179;23;20462;-87
2022/11/10 10:58:23;;;;;;;25.38;9.57;;;13.30;99.90;;;;;;6139661;23;20057;-87
2022/11/10 11:01:18;;;;;;;29.13;10.00;;;13.40;99.90;;;;;;6140103;23;20347;-87
2022/11/10 11:03:51;;;;;;;27.23;9.20;;;13.50;99.90;;;;;;6139094;23;20017;-87
2022/11/10 11:06:25;;;;;;;24.65;9.35;;;13.50;99.90;;;;;;6116029;23;20317;-87
2022/11/10 11:09:14;;;;;;;21.43;8.97;;;13.60;99.90;;;;;;6115675;23;20147;-87
2022/11/10 11:11:42;;;;;;;21.58;8.32;;;13.60;99.90;;;;;;6139775;23;20725;-86
2022/11/10 11:14:24;;;;;;;21.50;7.68;;;13.60;99.90;;;;;;6116185;22;20022;-88
2022/11/10 11:17:10;;;;;;;21.83;7.43;;;13.70;99.90;;;;;;6138664;23;20013;-88
2022/11/10 11:19:37;;;;;;;16.02;6.78;;;13.70;99.90;;;;;;6139909;23;20078;-87
2022/11/10 11:22:21;;;;;;;17.83;6.63;;;13.80;99.90;;;;;;6115097;23;20020;-85
2022/11/10 11:25:03;;;;;;;21.45;5.93;;;13.90;99.90;;;;;;6139784;23;20347;-87
2022/11/10 11:27:44;;;;;;;18.70;5.50;;;14.00;99.90;;;;;;6115276;23;20077;-86
2022/11/10 11:30:21;;;;;;;19.80;5.40;;;14.00;99.90;;;;;;6140493;23;20052;-87
2022/11/10 11:33:12;;;;;;;13.77;5.00;;;14.10;99.90;;;;;;6114356;23;20024;-87
2022/11/10 11:36:24;;;;;;;12.30;4.38;;;14.20;99.90;;;;;;6114538;23;20555;-87
2022/11/10 11:38:57;;;;;;;15.50;4.82;;;14.20;99.90;;;;;;6142041;23;20120;-86
2022/11/10 11:42:02;;;;;;;21.52;4.80;;;14.30;99.90;;;;;;6115298;23;20025;-86
2022/11/10 11:44:37;;;;;;;17.27;4.95;;;14.20;99.90;;;;;;6139858;23;20024;-87
2022/11/10 11:47:21;;;;;;;14.27;4.85;;;14.20;99.90;;;;;;6113092;23;20370;-86
2022/11/10 11:50:18;;;;;;;15.15;4.80;;;14.20;99.90;;;;;;6114818;23;20013;-87
2022/11/10 11:52:54;;;;;;;11.85;4.45;;;14.20;99.90;;;;;;6138726;23;20017;-86
2022/11/10 11:55:31;;;;;;;18.48;5.47;;;14.10;99.90;;;;;;6111091;23;20416;-86
2022/11/10 11:58:14;;;;;;;17.00;4.95;;;14.10;99.90;;;;;;6086760;23;20470;-86
2022/11/10 12:01:17;;;;;;;31.10;5.22;;;14.20;99.90;;;;;;6085914;23;20624;-87
2022/11/10 12:03:54;;;;;;;17.20;4.50;;;14.20;99.90;;;;;;6212847;23;20103;-87
2022/11/10 12:06:40;;;;;;;19.90;4.68;;;14.20;99.90;;;;;;6111731;23;20063;-87
2022/11/10 12:09:12;;;;;;;;;;;14.10;99.90;;;;;;6110233;23;20414;-88
2022/11/10 12:12:11;;;;;;;17.52;3.72;;;14.10;99.90;;;;;;6134693;23;20015;-87
2022/11/10 12:15:16;;;;;;;16.23;4.40;;;14.10;99.90;;;;;;6087071;23;20400;-87
2022/11/10 12:18:05;;;;;;;17.92;4.90;;;14.00;99.90;;;;;;6084197;23;20026;-88
2022/11/10 12:20:46;;;;;;;19.05;3.65;;;14.00;99.90;;;;;;6085304;23;20240;-87
2022/11/10 12:23:18;;;;;;;16.63;3.67;;;13.90;99.90;;;;;;6109774;23;20048;-86
2022/11/10 12:26:23;;;;;;;10.98;3.33;;;13.80;99.90;;;;;;6109049;23;20022;-85
2022/11/10 12:28:58;;;;;;;20.17;4.10;;;13.80;99.90;;;;;;6085383;23;20032;-87
2022/11/10 12:31:26;;;;;;;15.07;4.07;;;13.90;99.90;;;;;;6085384;23;20057;-87
2022/11/10 12:34:04;;;;;;;19.70;4.18;;;13.90;99.90;;;;;;6084771;23;20063;-86
2022/11/10 12:36:31;;;;;;;16.90;3.90;;;13.90;99.90;;;;;;6085734;23;20302;-87
2022/11/10 12:39:55;;;;;;;16.40;3.28;;;13.90;99.90;;;;;;6086413;23;20088;-87
2022/11/10 12:42:23;;;;;;;16.20;3.50;;;13.80;99.90;;;;;;6096708;23;20017;-87
2022/11/10 12:45:03;;;;;;;25.38;3.78;;;13.70;99.90;;;;;;6085299;23;20512;-87
2022/11/10 12:47:34;;;;;;;12.43;3.70;;;13.70;99.90;;;;;;6084307;23;20022;-86
2022/11/10 12:50:03;;;;;;;16.00;3.90;;;13.60;99.90;;;;;;6085493;23;20017;-87
2022/11/10 12:52:37;;;;;;;17.75;3.78;;;13.60;99.90;;;;;;6084797;23;20056;-87
2022/11/10 12:55:04;;;;;;;15.60;3.80;;;13.60;99.90;;;;;;6137065;23;20257;-87
2022/11/10 12:57:30;;;;;;;14.55;3.20;;;13.50;99.90;;;;;;6139951;23;20016;-87
2022/11/10 13:00:01;;;;;;;17.00;3.63;;;13.50;99.90;;;;;;6139725;23;20017;-87
2022/11/10 13:02:40;;;;;;;17.05;3.50;;;13.50;99.90;;;;;;6138762;23;20009;-88
2022/11/10 13:05:35;;;;;;;16.67;3.38;;;13.50;99.90;;;;;;6163795;23;20354;-86
2022/11/10 13:08:23;;;;;;;10.90;3.05;;;13.50;99.90;;;;;;6139892;23;20032;-87